createdAt,value
2019-05-01T00:01:55.437Z,11.80
2019-05-01T00:04:37.972Z,11.80
2019-05-01T00:07:13.303Z,11.80
2019-05-01T00:09:41.687Z,11.80
2019-05-01T00:12:11.192Z,11.80
2019-05-01T00:14:39.856Z,11.70
2019-05-01T00:17:08.588Z,11.70
2019-05-01T00:19:37.239Z,11.70
2019-05-01T00:22:05.928Z,11.70
2019-05-01T00:24:34.652Z,11.70
2019-05-01T00:27:03.299Z,11.70
2019-05-01T00:29:32.037Z,11.60
2019-05-01T00:32:00.390Z,11.60
2019-05-01T00:34:28.951Z,11.60
2019-05-01T00:36:58.358Z,11.60
2019-05-01T00:39:26.952Z,11.60
2019-05-01T00:41:55.612Z,11.60
2019-05-01T00:44:25.538Z,11.60
2019-05-01T00:46:53.934Z,11.60
2019-05-01T00:49:22.758Z,11.60
2019-05-01T00:51:51.514Z,11.60
2019-05-01T00:54:20.298Z,11.60
2019-05-01T00:57:08.404Z,11.60
2019-05-01T01:00:05.769Z,11.60
2019-05-01T01:02:40.499Z,11.50
2019-05-01T01:05:09.624Z,11.50
2019-05-01T01:07:38.385Z,11.50
2019-05-01T01:10:08.522Z,11.50
2019-05-01T01:12:37.221Z,11.50
2019-05-01T01:15:06.186Z,11.40
2019-05-01T01:17:41.687Z,11.40
2019-05-01T01:20:11.439Z,11.30
2019-05-01T01:22:39.943Z,11.30
2019-05-01T01:25:08.804Z,11.30
2019-05-01T01:27:37.291Z,11.30
2019-05-01T01:30:08.051Z,11.30
2019-05-01T01:32:36.735Z,11.30
2019-05-01T01:35:05.703Z,11.20
2019-05-01T01:37:34.520Z,11.20
2019-05-01T01:40:03.289Z,11.20
2019-05-01T01:42:31.964Z,11.20
2019-05-01T01:45:09.859Z,11.20
2019-05-01T01:47:58.104Z,11.20
2019-05-01T01:50:26.597Z,11.10
2019-05-01T01:52:55.479Z,11.10
2019-05-01T01:55:24.451Z,11.10
2019-05-01T01:57:53.779Z,11.10
2019-05-01T02:00:25.549Z,11.00
2019-05-01T02:02:57.905Z,11.00
2019-05-01T02:05:30.706Z,11.00
2019-05-01T02:07:59.286Z,11.00
2019-05-01T02:10:41.819Z,11.00
2019-05-01T02:12:58.264Z,10.90
2019-05-01T02:15:26.681Z,10.90
2019-05-01T02:17:55.439Z,10.90
2019-05-01T02:20:23.833Z,10.90
2019-05-01T02:22:52.637Z,10.90
2019-05-01T02:25:21.994Z,10.90
2019-05-01T02:28:09.644Z,10.80
2019-05-01T02:30:40.457Z,10.80
2019-05-01T02:33:11.375Z,10.80
2019-05-01T02:35:41.304Z,10.80
2019-05-01T02:38:12.216Z,10.70
2019-05-01T02:40:50.936Z,10.70
2019-05-01T02:43:21.535Z,10.70
2019-05-01T02:45:57.158Z,10.60
2019-05-01T02:48:28.040Z,10.60
2019-05-01T02:51:00.246Z,10.60
2019-05-01T02:53:32.532Z,10.60
2019-05-01T02:56:21.081Z,10.50
2019-05-01T02:58:52.426Z,10.50
2019-05-01T03:01:21.838Z,10.50
2019-05-01T03:03:51.951Z,10.50
2019-05-01T03:06:20.766Z,10.50
2019-05-01T03:08:52.924Z,10.40
2019-05-01T03:11:21.328Z,10.40
2019-05-01T03:13:52.611Z,10.40
2019-05-01T03:16:22.034Z,10.40
2019-05-01T03:18:53.702Z,10.40
2019-05-01T03:21:31.777Z,10.30
2019-05-01T03:24:12.972Z,10.30
2019-05-01T03:26:42.041Z,10.20
2019-05-01T03:29:10.877Z,10.20
2019-05-01T03:31:39.577Z,10.20
2019-05-01T03:34:08.653Z,10.10
2019-05-01T03:36:37.707Z,10.10
2019-05-01T03:39:06.545Z,10.10
2019-05-01T03:41:35.539Z,10.10
2019-05-01T03:44:04.697Z,10.00
2019-05-01T03:46:34.617Z,10.00
2019-05-01T03:49:03.843Z,10.00
2019-05-01T03:51:32.715Z,10.00
2019-05-01T03:54:01.768Z,9.90
2019-05-01T03:56:31.042Z,10.00
2019-05-01T03:59:00.106Z,9.90
2019-05-01T04:01:36.577Z,9.90
2019-05-01T04:04:25.006Z,9.90
2019-05-01T04:06:53.839Z,9.90
2019-05-01T04:09:22.599Z,9.90
2019-05-01T04:11:51.295Z,9.80
2019-05-01T04:14:20.292Z,9.90
2019-05-01T04:16:52.521Z,9.90
2019-05-01T04:19:21.461Z,9.80
2019-05-01T04:21:55.728Z,9.80
2019-05-01T04:24:24.718Z,9.80
2019-05-01T04:26:53.333Z,9.80
2019-05-01T04:29:30.146Z,9.80
2019-05-01T04:32:14.279Z,9.70
2019-05-01T04:35:05.378Z,9.70
2019-05-01T04:37:33.871Z,9.70
2019-05-01T04:40:02.537Z,9.70
2019-05-01T04:42:31.508Z,9.70
2019-05-01T04:45:00.420Z,9.70
2019-05-01T04:47:35.186Z,9.70
2019-05-01T04:50:03.768Z,9.70
2019-05-01T04:52:32.919Z,9.70
2019-05-01T04:55:01.853Z,9.70
2019-05-01T04:57:30.722Z,9.70
2019-05-01T04:59:59.602Z,9.70
2019-05-01T05:02:35.346Z,9.70
2019-05-01T05:05:04.454Z,9.70
2019-05-01T05:07:33.232Z,9.70
2019-05-01T05:10:02.362Z,9.70
2019-05-01T05:12:59.296Z,9.70
2019-05-01T05:15:47.530Z,9.70
2019-05-01T05:18:16.327Z,9.70
2019-05-01T05:20:44.802Z,9.70
2019-05-01T05:23:13.521Z,9.70
2019-05-01T05:25:42.263Z,9.70
2019-05-01T05:28:11.345Z,9.80
2019-05-01T05:30:42.316Z,9.90
2019-05-01T05:33:18.117Z,9.80
2019-05-01T05:35:44.131Z,9.90
2019-05-01T05:38:33.399Z,9.90
2019-05-01T05:41:03.348Z,9.90
2019-05-01T05:43:33.280Z,9.90
2019-05-01T05:46:02.266Z,9.90
2019-05-01T05:48:32.087Z,10.00
2019-05-01T05:51:18.448Z,9.90
2019-05-01T05:53:51.834Z,9.90
2019-05-01T05:56:26.764Z,10.00
2019-05-01T05:59:01.118Z,10.00
2019-05-01T06:01:54.144Z,10.10
2019-05-01T06:04:51.442Z,10.10
2019-05-01T06:07:40.620Z,10.10
2019-05-01T06:10:23.295Z,10.10
2019-05-01T06:13:21.913Z,10.20
2019-05-01T06:16:23.589Z,10.20
2019-05-01T06:19:09.647Z,10.30
2019-05-01T06:22:09.548Z,10.30
2019-05-01T06:24:42.386Z,10.40
2019-05-01T06:27:21.479Z,10.40
2019-05-01T06:29:54.888Z,10.40
2019-05-01T06:32:33.527Z,10.50
2019-05-01T06:35:05.803Z,10.60
2019-05-01T06:38:08.700Z,10.60
2019-05-01T06:40:44.335Z,10.70
2019-05-01T06:43:30.792Z,10.80
2019-05-01T06:46:35.219Z,10.90
2019-05-01T06:49:32.057Z,11.00
2019-05-01T06:52:08.129Z,11.00
2019-05-01T06:54:47.887Z,11.10
2019-05-01T06:57:18.950Z,11.10
2019-05-01T06:59:53.832Z,11.10
2019-05-01T07:02:34.995Z,11.10
2019-05-01T07:05:09.097Z,11.20
2019-05-01T07:07:48.074Z,11.30
2019-05-01T07:10:31.811Z,11.30
2019-05-01T07:13:05.025Z,11.40
2019-05-01T07:15:35.044Z,11.50
2019-05-01T07:18:13.205Z,11.60
2019-05-01T07:20:54.709Z,11.50
2019-05-01T07:23:26.852Z,11.50
2019-05-01T07:25:59.601Z,11.70
2019-05-01T07:28:36.986Z,11.90
2019-05-01T07:31:14.560Z,12.00
2019-05-01T07:33:51.231Z,12.10
2019-05-01T07:36:24.615Z,12.30
2019-05-01T07:39:00.147Z,12.40
2019-05-01T07:41:33.953Z,12.70
2019-05-01T07:44:36.638Z,12.90
2019-05-01T07:47:31.688Z,13.00
2019-05-01T07:50:12.208Z,13.00
2019-05-01T07:52:47.725Z,13.00
2019-05-01T07:55:38.827Z,13.10
2019-05-01T07:58:16.009Z,13.30
2019-05-01T08:01:02.422Z,13.40
2019-05-01T08:03:37.972Z,13.60
2019-05-01T08:06:16.351Z,13.80
2019-05-01T08:08:47.026Z,14.00
2019-05-01T08:11:20.530Z,14.20
2019-05-01T08:14:06.587Z,14.30
2019-05-01T08:16:37.804Z,14.50
2019-05-01T08:19:21.861Z,14.60
2019-05-01T08:22:03.075Z,14.80
2019-05-01T08:24:37.796Z,14.80
2019-05-01T08:27:28.906Z,15.00
2019-05-01T08:30:18.686Z,15.00
2019-05-01T08:33:14.533Z,15.10
2019-05-01T08:35:47.355Z,15.10
2019-05-01T08:38:29.879Z,15.20
2019-05-01T08:41:07.323Z,15.30
2019-05-01T08:43:44.523Z,15.60
2019-05-01T08:46:34.393Z,15.80
2019-05-01T08:49:20.916Z,15.80
2019-05-01T08:51:53.708Z,15.80
2019-05-01T08:54:28.868Z,15.90
2019-05-01T08:57:04.065Z,16.00
2019-05-01T08:59:36.522Z,16.30
2019-05-01T09:02:11.877Z,16.50
2019-05-01T09:04:45.056Z,16.50
2019-05-01T09:07:19.118Z,16.50
2019-05-01T09:09:52.035Z,16.40
2019-05-01T09:12:24.222Z,16.50
2019-05-01T09:15:07.135Z,16.60
2019-05-01T09:17:43.707Z,16.70
2019-05-01T09:20:17.298Z,16.90
2019-05-01T09:22:53.169Z,16.90
2019-05-01T09:25:35.310Z,17.10
2019-05-01T09:28:21.148Z,17.20
2019-05-01T09:31:02.150Z,17.50
2019-05-01T09:33:37.125Z,17.60
2019-05-01T09:36:08.050Z,17.70
2019-05-01T09:38:39.858Z,17.70
2019-05-01T09:41:11.645Z,17.90
2019-05-01T09:43:44.609Z,17.90
2019-05-01T09:46:16.495Z,17.90
2019-05-01T09:48:48.631Z,18.00
2019-05-01T09:51:56.225Z,18.10
2019-05-01T09:54:43.007Z,18.20
2019-05-01T09:57:13.380Z,18.40
2019-05-01T09:59:44.913Z,18.50
2019-05-01T10:02:16.603Z,18.50
2019-05-01T10:04:48.573Z,18.40
2019-05-01T10:07:28.825Z,18.40
2019-05-01T10:10:00.511Z,18.40
2019-05-01T10:12:31.896Z,18.40
2019-05-01T10:15:47.049Z,18.40
2019-05-01T10:18:21.103Z,18.40
2019-05-01T10:20:52.408Z,18.30
2019-05-01T10:23:24.015Z,18.30
2019-05-01T10:25:57.151Z,18.20
2019-05-01T10:28:38.857Z,18.20
2019-05-01T10:31:25.257Z,18.30
2019-05-01T10:34:16.661Z,18.50
2019-05-01T10:36:54.631Z,18.70
2019-05-01T10:39:30.278Z,19.00
2019-05-01T10:42:02.208Z,19.30
2019-05-01T10:44:40.722Z,19.60
2019-05-01T10:47:37.067Z,19.70
2019-05-01T10:50:11.984Z,19.70
2019-05-01T10:52:49.937Z,19.90
2019-05-01T10:55:23.704Z,20.00
2019-05-01T10:58:06.513Z,20.00
2019-05-01T11:00:40.391Z,20.10
2019-05-01T11:03:11.937Z,20.50
2019-05-01T11:05:55.259Z,21.00
2019-05-01T11:08:21.768Z,20.90
2019-05-01T11:10:53.210Z,21.00
2019-05-01T11:14:00.407Z,21.00
2019-05-01T11:16:35.919Z,21.10
2019-05-01T11:19:08.700Z,21.00
2019-05-01T11:21:40.404Z,21.00
2019-05-01T11:24:15.508Z,21.00
2019-05-01T11:26:46.508Z,20.90
2019-05-01T11:29:26.564Z,20.90
2019-05-01T11:32:12.702Z,20.90
2019-05-01T11:35:03.172Z,21.00
2019-05-01T11:37:43.327Z,20.90
2019-05-01T11:40:24.150Z,20.80
2019-05-01T11:42:55.765Z,20.80
2019-05-01T11:45:30.358Z,20.80
2019-05-01T11:48:07.044Z,21.00
2019-05-01T11:50:38.540Z,21.20
2019-05-01T11:53:09.825Z,21.40
2019-05-01T11:55:41.970Z,21.50
2019-05-01T11:58:26.104Z,21.50
2019-05-01T12:01:05.901Z,21.40
2019-05-01T12:04:01.698Z,21.40
2019-05-01T12:06:57.284Z,21.40
2019-05-01T12:09:58.651Z,21.50
2019-05-01T12:12:57.144Z,21.40
2019-05-01T12:15:31.961Z,21.30
2019-05-01T12:18:03.862Z,21.50
2019-05-01T12:20:35.540Z,21.60
2019-05-01T12:23:07.117Z,21.70
2019-05-01T12:25:38.369Z,21.50
2019-05-01T12:28:09.405Z,21.50
2019-05-01T12:30:44.158Z,21.60
2019-05-01T12:33:22.123Z,21.60
2019-05-01T12:35:56.679Z,21.70
2019-05-01T12:38:31.381Z,21.40
2019-05-01T12:41:35.832Z,21.40
2019-05-01T12:44:12.785Z,21.50
2019-05-01T12:46:58.102Z,21.60
2019-05-01T12:49:30.063Z,21.50
2019-05-01T12:52:10.615Z,21.40
2019-05-01T12:54:42.624Z,21.40
2019-05-01T12:57:16.099Z,21.40
2019-05-01T12:59:47.924Z,21.70
2019-05-01T13:02:24.880Z,21.70
2019-05-01T13:04:56.655Z,21.60
2019-05-01T13:07:28.119Z,21.80
2019-05-01T13:09:59.985Z,21.70
2019-05-01T13:12:34.803Z,21.50
2019-05-01T13:15:08.498Z,21.40
2019-05-01T13:17:44.331Z,21.40
2019-05-01T13:20:20.039Z,21.40
2019-05-01T13:22:54.964Z,21.20
2019-05-01T13:25:27.770Z,21.10
2019-05-01T13:28:34.101Z,21.00
2019-05-01T13:31:13.974Z,21.00
2019-05-01T13:33:46.217Z,20.90
2019-05-01T13:36:20.246Z,20.70
2019-05-01T13:38:52.974Z,20.60
2019-05-01T13:41:24.731Z,20.50
2019-05-01T13:43:56.433Z,20.40
2019-05-01T13:46:27.307Z,20.40
2019-05-01T13:48:59.781Z,20.30
2019-05-01T13:51:31.521Z,20.30
2019-05-01T13:54:08.764Z,20.30
2019-05-01T13:56:40.970Z,20.20
2019-05-01T13:59:14.507Z,20.10
2019-05-01T14:01:46.528Z,20.00
2019-05-01T14:04:18.038Z,19.80
2019-05-01T14:06:49.215Z,19.80
2019-05-01T14:09:38.871Z,19.70
2019-05-01T14:12:12.341Z,19.60
2019-05-01T14:14:50.975Z,19.50
2019-05-01T14:17:23.350Z,19.30
2019-05-01T14:20:05.794Z,19.20
2019-05-01T14:22:59.687Z,19.10
2019-05-01T14:25:52.105Z,19.00
2019-05-01T14:28:25.222Z,18.90
2019-05-01T14:31:01.312Z,18.90
2019-05-01T14:33:32.987Z,18.80
2019-05-01T14:36:09.256Z,18.80
2019-05-01T14:38:41.619Z,18.90
2019-05-01T14:41:25.756Z,18.90
2019-05-01T14:43:59.396Z,19.00
2019-05-01T14:46:32.310Z,19.00
2019-05-01T14:49:06.956Z,19.00
2019-05-01T14:51:48.178Z,18.90
2019-05-01T14:54:23.330Z,18.70
2019-05-01T14:57:14.828Z,18.70
2019-05-01T14:59:49.693Z,18.50
2019-05-01T15:02:30.641Z,18.30
2019-05-01T15:05:06.916Z,18.20
2019-05-01T15:07:43.549Z,18.10
2019-05-01T15:10:14.564Z,17.90
2019-05-01T15:12:48.112Z,17.80
2019-05-01T15:15:42.637Z,17.70
2019-05-01T15:18:43.209Z,17.70
2019-05-01T15:21:14.708Z,17.60
2019-05-01T15:23:53.658Z,17.60
2019-05-01T15:26:26.285Z,17.50
2019-05-01T15:29:04.420Z,17.40
2019-05-01T15:31:35.802Z,17.30
2019-05-01T15:34:07.533Z,17.30
2019-05-01T15:36:42.985Z,17.20
2019-05-01T15:39:27.004Z,17.20
2019-05-01T15:42:16.736Z,17.20
2019-05-01T15:44:49.427Z,17.20
2019-05-01T15:47:21.321Z,17.00
2019-05-01T15:50:00.016Z,17.00
2019-05-01T15:52:31.603Z,16.90
2019-05-01T15:55:08.269Z,16.70
2019-05-01T15:57:36.984Z,16.70
2019-05-01T16:00:11.707Z,16.70
2019-05-01T16:02:45.978Z,16.50
2019-05-01T16:05:19.415Z,16.50
2019-05-01T16:07:52.402Z,16.50
2019-05-01T16:10:32.510Z,16.40
2019-05-01T16:13:04.387Z,16.40
2019-05-01T16:15:35.947Z,16.30
2019-05-01T16:18:07.494Z,16.40
2019-05-01T16:20:40.025Z,16.40
2019-05-01T16:23:12.028Z,16.30
2019-05-01T16:25:46.092Z,16.30
2019-05-01T16:28:17.552Z,16.30
2019-05-01T16:30:50.437Z,16.20
2019-05-01T16:33:22.395Z,16.10
2019-05-01T16:35:55.294Z,16.10
2019-05-01T16:38:45.974Z,16.00
2019-05-01T16:41:17.350Z,16.00
2019-05-01T16:43:51.735Z,15.90
2019-05-01T16:46:23.444Z,15.90
2019-05-01T16:48:56.259Z,15.90
2019-05-01T16:51:29.707Z,15.80
2019-05-01T16:54:03.514Z,15.80
2019-05-01T16:56:35.583Z,15.70
2019-05-01T16:59:09.363Z,15.60
2019-05-01T17:01:52.105Z,15.60
2019-05-01T17:05:04.551Z,15.50
2019-05-01T17:07:47.418Z,15.50
2019-05-01T17:10:30.215Z,15.40
2019-05-01T17:13:01.480Z,15.40
2019-05-01T17:15:38.043Z,15.40
2019-05-01T17:18:10.995Z,15.40
2019-05-01T17:20:42.641Z,15.30
2019-05-01T17:23:14.451Z,15.30
2019-05-01T17:25:47.035Z,15.30
2019-05-01T17:28:21.603Z,15.30
2019-05-01T17:31:00.122Z,15.30
2019-05-01T17:33:32.759Z,15.30
2019-05-01T17:36:10.900Z,15.30
2019-05-01T17:38:49.746Z,15.20
2019-05-01T17:41:22.698Z,15.20
2019-05-01T17:43:56.869Z,15.20
2019-05-01T17:46:30.238Z,15.20
2019-05-01T17:49:04.177Z,15.20
2019-05-01T17:51:42.525Z,15.20
2019-05-01T17:54:11.882Z,15.10
2019-05-01T17:56:43.911Z,15.10
2019-05-01T17:59:15.995Z,15.00
2019-05-01T18:02:10.036Z,15.00
2019-05-01T18:04:54.649Z,14.90
2019-05-01T18:07:28.884Z,14.90
2019-05-01T18:10:02.735Z,14.80
2019-05-01T18:12:38.522Z,14.80
2019-05-01T18:15:12.600Z,14.80
2019-05-01T18:17:47.953Z,14.70
2019-05-01T18:20:20.351Z,14.60
2019-05-01T18:23:17.436Z,14.60
2019-05-01T18:26:04.860Z,14.60
2019-05-01T18:28:48.906Z,14.50
2019-05-01T18:31:27.966Z,14.50
2019-05-01T18:34:02.332Z,14.50
2019-05-01T18:36:44.417Z,14.50
2019-05-01T18:39:25.882Z,14.40
2019-05-01T18:42:17.863Z,14.40
2019-05-01T18:44:53.210Z,14.30
2019-05-01T18:47:25.593Z,14.30
2019-05-01T18:49:57.572Z,14.20
2019-05-01T18:52:29.266Z,14.20
2019-05-01T18:55:03.876Z,14.20
2019-05-01T18:57:36.555Z,14.10
2019-05-01T19:00:08.595Z,14.10
2019-05-01T19:02:42.011Z,14.10
2019-05-01T19:05:14.442Z,14.00
2019-05-01T19:07:47.802Z,14.00
2019-05-01T19:10:30.468Z,14.00
2019-05-01T19:13:04.466Z,13.90
2019-05-01T19:15:36.305Z,13.90
2019-05-01T19:18:14.865Z,13.80
2019-05-01T19:20:59.773Z,13.80
2019-05-01T19:23:38.199Z,13.80
2019-05-01T19:26:20.514Z,13.70
2019-05-01T19:29:01.519Z,13.70
2019-05-01T19:31:31.950Z,13.60
2019-05-01T19:34:04.007Z,13.60
2019-05-01T19:36:40.285Z,13.50
2019-05-01T19:39:11.794Z,13.50
2019-05-01T19:41:48.625Z,13.50
2019-05-01T19:44:20.143Z,13.50
2019-05-01T19:46:52.196Z,13.50
2019-05-01T19:49:29.224Z,13.40
2019-05-01T19:52:00.587Z,13.40
2019-05-01T19:54:35.562Z,13.30
2019-05-01T19:57:09.859Z,13.30
2019-05-01T19:59:49.207Z,13.30
2019-05-01T20:02:22.193Z,13.20
2019-05-01T20:04:54.407Z,13.20
2019-05-01T20:07:26.316Z,13.20
2019-05-01T20:09:58.422Z,13.20
2019-05-01T20:12:30.078Z,13.20
2019-05-01T20:15:03.222Z,13.20
2019-05-01T20:17:37.691Z,13.20
2019-05-01T20:20:10.204Z,13.10
2019-05-01T20:22:42.336Z,13.00
2019-05-01T20:25:14.644Z,13.00
2019-05-01T20:27:47.740Z,13.00
2019-05-01T20:30:16.512Z,13.00
2019-05-01T20:32:45.909Z,12.90
2019-05-01T20:35:17.609Z,12.90
2019-05-01T20:37:48.191Z,13.00
2019-05-01T20:40:17.971Z,12.90
2019-05-01T20:42:47.201Z,12.90
2019-05-01T20:45:19.519Z,12.90
2019-05-01T20:47:50.076Z,12.90
2019-05-01T20:50:20.287Z,13.00
2019-05-01T20:52:48.792Z,12.90
2019-05-01T20:55:17.668Z,12.90
2019-05-01T20:57:46.704Z,12.90
2019-05-01T21:00:17.059Z,12.90
2019-05-01T21:02:47.050Z,12.90
2019-05-01T21:05:24.364Z,12.90
2019-05-01T21:08:12.364Z,12.90
2019-05-01T21:10:51.226Z,12.90
2019-05-01T21:13:23.316Z,12.90
2019-05-01T21:15:50.060Z,12.90
2019-05-01T21:18:20.826Z,12.90
2019-05-01T21:20:49.689Z,12.90
2019-05-01T21:23:18.273Z,12.80
2019-05-01T21:25:46.960Z,12.70
2019-05-01T21:28:16.694Z,12.80
2019-05-01T21:30:47.506Z,12.80
2019-05-01T21:33:16.492Z,12.80
2019-05-01T21:35:45.208Z,12.80
2019-05-01T21:38:14.068Z,12.80
2019-05-01T21:40:43.834Z,12.80
2019-05-01T21:43:13.611Z,12.70
2019-05-01T21:45:43.390Z,12.70
2019-05-01T21:48:13.526Z,12.60
2019-05-01T21:50:43.856Z,12.50
2019-05-01T21:53:12.932Z,12.50
2019-05-01T21:55:41.991Z,12.40
2019-05-01T21:58:10.341Z,12.40
2019-05-01T22:00:39.970Z,12.30
2019-05-01T22:03:10.571Z,12.30
2019-05-01T22:05:39.708Z,12.20
2019-05-01T22:08:09.419Z,12.20
2019-05-01T22:10:50.793Z,12.20
2019-05-01T22:13:08.940Z,12.10
2019-05-01T22:15:46.636Z,12.10
2019-05-01T22:18:26.285Z,12.10
2019-05-01T22:21:07.810Z,12.00
2019-05-01T22:23:55.928Z,12.00
2019-05-01T22:26:26.158Z,12.00
2019-05-01T22:28:57.027Z,12.00
2019-05-01T22:35:21.919Z,12.00
2019-05-01T22:37:50.305Z,12.00
2019-05-01T22:40:26.452Z,11.90
2019-05-01T22:42:55.044Z,11.90
2019-05-01T22:45:24.211Z,11.90
2019-05-01T22:47:52.650Z,11.80
2019-05-01T22:50:21.690Z,11.80
2019-05-01T22:52:50.093Z,11.70
2019-05-01T22:55:20.416Z,11.70
2019-05-01T22:57:49.403Z,11.70
2019-05-01T23:00:32.438Z,11.60
2019-05-01T23:03:05.599Z,11.60
2019-05-01T23:05:34.190Z,11.60
2019-05-01T23:08:02.729Z,11.60
2019-05-01T23:10:31.466Z,11.50
2019-05-01T23:13:00.149Z,11.40
2019-05-01T23:15:30.377Z,11.40
2019-05-01T23:17:59.162Z,11.30
2019-05-01T23:20:27.629Z,11.30
2019-05-01T23:22:56.355Z,11.30
2019-05-01T23:25:26.031Z,11.30
2019-05-01T23:27:54.721Z,11.20
2019-05-01T23:30:23.453Z,11.20
2019-05-01T23:32:52.105Z,11.20
2019-05-01T23:35:20.782Z,11.20
2019-05-01T23:37:49.696Z,11.20
2019-05-01T23:40:18.569Z,11.10
2019-05-01T23:42:52.301Z,11.10
2019-05-01T23:45:17.806Z,11.20
2019-05-01T23:47:46.462Z,11.20
2019-05-01T23:50:15.149Z,11.10
2019-05-01T23:52:43.651Z,11.20
2019-05-01T23:55:12.605Z,11.10
2019-05-01T23:57:43.187Z,11.10
